Time;durP1;ratioP1;P1;durP2;ratioP2;P2;SDS_P1;SDS_P2;PMS_P1;PMS_P2;Temp;Humidity;BMP_temperature;BMP_pressure;BME280_temperature;BME280_humidity;BME280_pressure;Samples;Min_cycle;Max_cycle;Signal;HPM_P1;HPM_P2
2021/04/17 00:01:20;;;;;;;49.90;19.70;;;5.70;99.90;;;;;;4882192;29;20183;-85
2021/04/17 00:03:45;;;;;;;48.53;20.80;;;3.90;99.90;;;;;;4882788;29;20182;-85
2021/04/17 00:06:11;;;;;;;48.80;20.63;;;3.90;99.90;;;;;;4881169;29;20186;-85
2021/04/17 00:08:37;;;;;;;53.83;20.67;;;3.90;99.90;;;;;;4883019;29;20190;-84
2021/04/17 00:11:05;;;;;;;39.03;16.67;;;3.90;99.90;;;;;;4882645;29;20244;-85
2021/04/17 00:13:30;;;;;;;48.00;20.80;;;3.90;99.90;;;;;;4881874;29;20271;-85
2021/04/17 00:15:56;;;;;;;51.00;21.50;;;3.90;99.90;;;;;;4897175;29;20662;-85
2021/04/17 00:18:22;;;;;;;53.67;21.60;;;3.80;99.90;;;;;;4882375;29;20218;-84
2021/04/17 00:20:48;;;;;;;46.97;20.10;;;3.90;99.90;;;;;;4896733;29;20646;-85
2021/04/17 00:23:15;;;;;;;47.40;21.53;;;3.90;99.90;;;;;;4896693;29;20181;-85
2021/04/17 00:25:41;;;;;;;43.97;20.30;;;3.90;99.90;;;;;;4896949;29;20185;-85
2021/04/17 00:28:07;;;;;;;49.87;20.60;;;3.80;99.90;;;;;;4880413;29;20190;-85
2021/04/17 00:30:32;;;;;;;55.17;20.43;;;3.70;99.90;;;;;;4880541;29;20605;-85
2021/04/17 00:32:58;;;;;;;42.70;19.40;;;3.60;99.90;;;;;;4880890;29;20558;-84
2021/04/17 00:35:23;;;;;;;46.53;20.07;;;3.70;99.90;;;;;;4881962;29;20185;-85
2021/04/17 00:37:49;;;;;;;49.30;19.30;;;3.70;99.90;;;;;;4881152;29;20230;-84
2021/04/17 00:40:15;;;;;;;44.57;19.83;;;3.70;99.90;;;;;;4896312;29;20190;-85
2021/04/17 00:42:40;;;;;;;43.90;19.33;;;3.60;99.90;;;;;;4881105;29;20202;-85
2021/04/17 00:45:07;;;;;;;48.73;20.17;;;3.70;99.90;;;;;;4880275;29;20649;-84
2021/04/17 00:47:33;;;;;;;50.03;19.73;;;3.60;99.90;;;;;;4881694;29;20657;-84
2021/04/17 00:50:00;;;;;;;42.57;18.40;;;3.70;99.90;;;;;;4881494;29;20182;-84
2021/04/17 00:52:26;;;;;;;56.10;22.10;;;3.70;99.90;;;;;;4880157;29;20727;-85
2021/04/17 00:54:51;;;;;;;45.10;17.70;;;3.70;99.90;;;;;;4895922;29;20184;-84
2021/04/17 00:57:17;;;;;;;42.47;19.47;;;3.70;99.90;;;;;;4881037;29;20228;-85
2021/04/17 00:59:43;;;;;;;60.00;21.13;;;3.70;99.90;;;;;;4880756;29;20191;-84
2021/04/17 01:02:09;;;;;;;53.37;19.60;;;4.60;99.90;;;;;;4880180;29;20295;-86
2021/04/17 01:04:43;;;;;;;52.47;19.57;;;3.70;99.90;;;;;;4880452;29;20186;-85
2021/04/17 01:07:21;;;;;;;50.03;18.53;;;4.00;99.90;;;;;;4881441;29;20199;-85
2021/04/17 01:09:49;;;;;;;51.07;19.67;;;3.70;99.90;;;;;;4886221;29;20166;-84
2021/04/17 01:12:18;;;;;;;52.50;20.17;;;3.60;99.90;;;;;;4899256;29;20197;-84
2021/04/17 01:14:45;;;;;;;55.23;20.50;;;3.70;99.90;;;;;;4888876;29;20228;-83
2021/04/17 01:17:12;;;;;;;50.70;19.50;;;3.60;99.90;;;;;;4904603;29;20667;-85
2021/04/17 01:19:38;;;;;;;51.60;20.40;;;3.70;99.90;;;;;;4880547;29;20286;-84
2021/04/17 01:22:08;;;;;;;44.20;17.30;;;3.70;99.90;;;;;;4880248;29;20190;-83
2021/04/17 01:24:36;;;;;;;50.97;19.97;;;3.70;99.90;;;;;;4881562;29;20206;-84
2021/04/17 01:27:04;;;;;;;60.27;21.03;;;3.70;99.90;;;;;;4881355;29;20240;-85
2021/04/17 01:29:31;;;;;;;50.53;20.33;;;3.70;99.90;;;;;;4880547;29;20240;-85
2021/04/17 01:31:59;;;;;;;60.53;22.07;;;3.80;99.90;;;;;;4895731;29;20197;-84
2021/04/17 01:34:25;;;;;;;45.27;20.37;;;3.70;99.90;;;;;;4880014;29;20546;-84
2021/04/17 01:36:52;;;;;;;45.67;19.83;;;3.80;99.90;;;;;;4881123;29;20191;-84
2021/04/17 01:39:20;;;;;;;61.40;20.50;;;3.70;99.90;;;;;;4879877;29;20189;-84
2021/04/17 01:41:53;;;;;;;47.37;18.33;;;3.80;99.90;;;;;;4880813;29;20194;-85
2021/04/17 01:44:24;;;;;;;52.53;20.80;;;3.80;99.90;;;;;;4880932;29;20181;-84
2021/04/17 01:47:11;;;;;;;54.33;20.77;;;3.70;99.90;;;;;;4879734;29;20650;-84
2021/04/17 01:49:43;;;;;;;65.90;22.47;;;3.70;99.90;;;;;;4879273;29;20623;-84
2021/04/17 01:52:11;;;;;;;57.83;20.53;;;3.70;99.90;;;;;;4880896;29;20562;-85
2021/04/17 01:54:43;;;;;;;71.10;22.53;;;3.70;99.90;;;;;;4879387;29;20551;-85
2021/04/17 01:57:13;;;;;;;65.23;21.70;;;3.70;99.90;;;;;;4880781;29;20214;-85
2021/04/17 01:59:40;;;;;;;64.77;21.73;;;3.70;99.90;;;;;;4895022;29;20667;-85
2021/04/17 02:02:06;;;;;;;60.50;20.67;;;3.80;99.90;;;;;;4880634;29;20307;-85
2021/04/17 02:04:34;;;;;;;59.47;21.43;;;3.70;99.90;;;;;;4878813;29;20209;-85
2021/04/17 02:06:59;;;;;;;52.90;20.37;;;3.90;99.90;;;;;;4880176;29;20265;-84
2021/04/17 02:09:25;;;;;;;56.63;20.37;;;3.80;99.90;;;;;;4894247;29;20325;-85
2021/04/17 02:11:51;;;;;;;56.83;21.77;;;3.80;99.90;;;;;;4878252;29;20214;-85
2021/04/17 02:14:17;;;;;;;60.13;20.27;;;3.80;99.90;;;;;;4879867;29;20759;-85
2021/04/17 02:16:48;;;;;;;57.17;20.07;;;3.90;99.90;;;;;;4878825;29;20197;-85
2021/04/17 02:19:22;;;;;;;53.37;20.60;;;3.80;99.90;;;;;;4879942;29;20191;-86
2021/04/17 02:21:49;;;;;;;40.87;15.90;;;3.80;99.90;;;;;;4880229;29;20610;-86
2021/04/17 02:24:15;;;;;;;64.37;20.47;;;3.80;99.90;;;;;;4879720;29;20203;-86
2021/04/17 02:26:42;;;;;;;65.97;21.80;;;3.80;99.90;;;;;;4894158;29;20647;-85
2021/04/17 02:29:08;;;;;;;64.47;21.13;;;3.80;99.90;;;;;;4879506;29;20686;-86
2021/04/17 02:31:34;;;;;;;64.53;20.70;;;3.80;99.90;;;;;;4878238;29;21018;-85
2021/04/17 02:34:00;;;;;;;65.13;21.03;;;3.80;99.90;;;;;;4894126;29;20182;-85
2021/04/17 02:36:26;;;;;;;62.27;22.80;;;3.80;99.90;;;;;;4879912;29;20668;-86
2021/04/17 02:38:51;;;;;;;66.70;20.90;;;3.80;99.90;;;;;;4878641;29;20723;-84
2021/04/17 02:41:17;;;;;;;41.30;13.50;;;3.80;99.90;;;;;;4878130;29;20194;-85
2021/04/17 02:43:45;;;;;;;62.70;21.27;;;5.10;99.90;;;;;;4878755;29;20188;-85
2021/04/17 02:46:11;;;;;;;54.40;18.13;;;3.80;99.90;;;;;;4894460;29;20179;-86
2021/04/17 02:48:37;;;;;;;56.33;21.03;;;3.80;99.90;;;;;;4879158;29;20220;-85
2021/04/17 02:51:04;;;;;;;71.73;23.23;;;3.80;99.90;;;;;;4878601;29;20294;-85
2021/04/17 02:53:30;;;;;;;63.00;22.70;;;3.80;99.90;;;;;;4879546;29;20174;-85
2021/04/17 02:55:55;;;;;;;63.10;20.67;;;3.80;99.90;;;;;;4880218;29;20192;-85
2021/04/17 02:58:22;;;;;;;52.33;18.90;;;3.90;99.90;;;;;;4893674;29;20694;-86
2021/04/17 03:00:47;;;;;;;61.20;20.07;;;4.30;99.90;;;;;;4894343;29;20190;-85
2021/04/17 03:03:13;;;;;;;61.33;20.37;;;3.90;99.90;;;;;;4879499;29;20182;-85
2021/04/17 03:05:39;;;;;;;59.20;22.00;;;3.80;99.90;;;;;;4893616;29;20276;-85
2021/04/17 03:08:05;;;;;;;60.47;21.03;;;3.90;99.90;;;;;;4879453;29;20180;-84
2021/04/17 03:10:31;;;;;;;62.90;20.50;;;3.90;99.90;;;;;;4878675;29;20194;-85
2021/04/17 03:12:57;;;;;;;68.63;22.03;;;3.80;99.90;;;;;;4879085;29;20665;-85
2021/04/17 03:15:23;;;;;;;59.57;20.37;;;3.90;99.90;;;;;;4893307;29;20182;-87
2021/04/17 03:17:48;;;;;;;59.93;21.93;;;3.80;99.90;;;;;;4893537;29;20217;-86
2021/04/17 03:20:14;;;;;;;66.83;19.83;;;3.90;99.90;;;;;;4893688;29;20187;-83
2021/04/17 03:22:40;;;;;;;64.53;21.90;;;3.90;99.90;;;;;;4882148;29;20192;-84
2021/04/17 03:25:10;;;;;;;62.17;21.03;;;3.00;99.90;;;;;;4888880;29;20186;-85
2021/04/17 03:27:37;;;;;;;65.43;21.23;;;3.80;99.90;;;;;;4885101;29;20185;-85
2021/04/17 03:30:07;;;;;;;62.20;20.40;;;3.80;99.90;;;;;;4899342;29;20278;-85
2021/04/17 03:32:33;;;;;;;61.50;21.57;;;3.80;99.90;;;;;;4884623;29;20200;-86
2021/04/17 03:34:58;;;;;;;51.20;19.67;;;3.90;99.90;;;;;;4899716;29;20187;-86
2021/04/17 03:37:24;;;;;;;58.43;20.07;;;3.80;99.90;;;;;;4899370;29;20223;-87
2021/04/17 03:39:50;;;;;;;63.97;21.07;;;3.80;99.90;;;;;;4885320;29;20222;-84
2021/04/17 03:42:15;;;;;;;43.57;15.83;;;3.80;99.90;;;;;;4883940;29;20186;-85
2021/04/17 03:44:41;;;;;;;66.43;20.90;;;4.30;99.90;;;;;;4900037;29;20191;-85
2021/04/17 03:47:07;;;;;;;65.70;20.53;;;3.80;99.90;;;;;;4884643;29;20197;-86
2021/04/17 03:49:32;;;;;;;63.37;20.80;;;3.80;99.90;;;;;;4900127;29;20516;-85
2021/04/17 03:51:58;;;;;;;76.93;20.83;;;3.80;99.90;;;;;;4899914;29;20546;-85
2021/04/17 03:54:24;;;;;;;64.63;20.60;;;3.80;99.90;;;;;;4884296;29;20272;-85
2021/04/17 03:56:49;;;;;;;68.23;20.73;;;3.80;99.90;;;;;;4885649;29;20182;-86
2021/04/17 03:59:15;;;;;;;67.73;21.53;;;3.80;99.90;;;;;;4884626;29;20197;-85
2021/04/17 04:01:41;;;;;;;89.00;33.07;;;4.10;99.90;;;;;;4883981;29;20245;-86
2021/04/17 04:04:06;;;;;;;62.70;20.37;;;3.90;99.90;;;;;;4884164;29;20386;-86
2021/04/17 04:06:32;;;;;;;52.07;18.87;;;3.90;99.90;;;;;;4899579;29;20267;-85
2021/04/17 04:08:57;;;;;;;66.53;19.60;;;3.90;99.90;;;;;;4900471;29;20646;-86
2021/04/17 04:11:23;;;;;;;73.37;20.70;;;3.80;99.90;;;;;;4887157;29;20257;-85
2021/04/17 04:13:49;;;;;;;54.80;18.07;;;3.80;99.90;;;;;;4893007;29;20279;-83
2021/04/17 04:16:15;;;;;;;56.37;17.13;;;3.80;99.90;;;;;;4888798;29;20253;-86
2021/04/17 04:18:40;;;;;;;68.80;20.53;;;4.10;99.90;;;;;;4885198;29;20214;-86
2021/04/17 04:21:06;;;;;;;65.90;19.83;;;3.80;99.90;;;;;;4885869;29;20221;-86
2021/04/17 04:23:32;;;;;;;68.10;18.97;;;3.80;99.90;;;;;;4884574;29;20186;-87
2021/04/17 04:25:57;;;;;;;74.40;21.20;;;3.80;99.90;;;;;;4884700;29;20186;-86
2021/04/17 04:28:23;;;;;;;69.37;24.40;;;3.80;99.90;;;;;;4899340;29;20550;-85
2021/04/17 04:30:49;;;;;;;70.40;19.70;;;3.80;99.90;;;;;;4898847;29;20236;-87
2021/04/17 04:33:15;;;;;;;71.27;24.13;;;3.80;99.90;;;;;;4896778;29;20185;-87
2021/04/17 04:35:40;;;;;;;64.40;21.30;;;3.80;99.90;;;;;;4878240;29;20665;-87
2021/04/17 04:38:06;;;;;;;64.53;20.17;;;3.90;99.90;;;;;;4884745;29;20230;-86
2021/04/17 04:40:32;;;;;;;73.37;21.30;;;3.90;99.90;;;;;;4867505;29;20199;-86
2021/04/17 04:42:57;;;;;;;67.30;22.27;;;3.80;99.90;;;;;;4883873;29;20521;-86
2021/04/17 04:45:23;;;;;;;67.03;20.93;;;3.90;99.90;;;;;;4886809;29;20555;-86
2021/04/17 04:47:49;;;;;;;72.80;21.77;;;3.80;99.90;;;;;;4895191;29;20191;-86
2021/04/17 04:50:14;;;;;;;63.37;20.00;;;3.80;99.90;;;;;;4873930;29;20197;-86
2021/04/17 04:52:40;;;;;;;68.33;20.17;;;3.80;99.90;;;;;;4874184;29;20192;-87
2021/04/17 04:55:06;;;;;;;85.97;24.53;;;3.80;99.90;;;;;;4879849;29;20196;-87
2021/04/17 04:57:32;;;;;;;74.53;21.43;;;3.80;99.90;;;;;;4873529;29;20231;-87
2021/04/17 04:59:58;;;;;;;70.73;21.83;;;3.90;99.90;;;;;;4874738;29;20272;-87
2021/04/17 05:02:23;;;;;;;50.30;16.33;;;3.90;99.90;;;;;;4886541;29;20196;-87
2021/04/17 05:04:49;;;;;;;66.83;21.03;;;3.90;99.90;;;;;;4866251;29;20212;-86
2021/04/17 05:07:15;;;;;;;77.60;21.80;;;3.90;99.90;;;;;;4862596;29;20189;-86
2021/04/17 05:09:40;;;;;;;56.20;17.30;;;4.50;99.90;;;;;;4872795;29;20260;-86
2021/04/17 05:12:06;;;;;;;63.87;20.70;;;3.90;99.90;;;;;;4864584;29;20186;-85
2021/04/17 05:14:32;;;;;;;68.93;22.43;;;3.80;99.90;;;;;;4880957;29;20179;-88
2021/04/17 05:16:58;;;;;;;67.07;20.80;;;3.80;99.90;;;;;;4880864;29;20200;-87
2021/04/17 05:19:25;;;;;;;66.57;20.20;;;3.90;99.90;;;;;;4895465;29;20197;-88
2021/04/17 05:21:51;;;;;;;68.20;22.53;;;4.00;99.90;;;;;;4895397;29;20189;-87
2021/04/17 05:24:18;;;;;;;77.10;22.33;;;3.90;99.90;;;;;;4876688;29;20200;-85
2021/04/17 05:26:43;;;;;;;74.33;22.13;;;3.90;99.90;;;;;;4890370;29;20562;-87
2021/04/17 05:29:09;;;;;;;86.53;25.57;;;3.90;99.90;;;;;;4867644;29;20197;-87
2021/04/17 05:31:35;;;;;;;73.83;22.43;;;4.00;99.90;;;;;;4859779;29;20197;-88
2021/04/17 05:34:05;;;;;;;68.10;20.73;;;4.10;99.90;;;;;;4891591;29;20200;-88
2021/04/17 05:36:32;;;;;;;75.17;22.27;;;3.90;99.90;;;;;;4875162;29;20282;-86
2021/04/17 05:38:57;;;;;;;70.30;22.13;;;4.00;99.90;;;;;;4879464;29;20297;-86
2021/04/17 05:41:25;;;;;;;77.50;23.80;;;3.90;99.90;;;;;;4870834;29;20652;-87
2021/04/17 05:43:51;;;;;;;66.03;19.73;;;3.90;99.90;;;;;;4878892;29;20195;-87
2021/04/17 05:46:16;;;;;;;71.03;23.53;;;4.00;99.90;;;;;;4878546;29;20546;-86
2021/04/17 05:48:42;;;;;;;75.97;23.57;;;4.00;99.90;;;;;;4893358;29;20229;-86
2021/04/17 05:51:07;;;;;;;87.50;25.10;;;4.00;99.90;;;;;;4880795;29;20196;-83
2021/04/17 05:53:33;;;;;;;81.37;24.47;;;4.00;99.90;;;;;;4885908;29;20197;-84
2021/04/17 05:55:59;;;;;;;88.13;25.97;;;4.00;99.90;;;;;;4877395;29;20196;-84
2021/04/17 05:58:25;;;;;;;88.93;24.53;;;4.10;99.90;;;;;;4862200;29;20207;-86
2021/04/17 06:00:50;;;;;;;80.03;23.47;;;3.90;99.90;;;;;;4884938;29;20203;-84
2021/04/17 06:03:16;;;;;;;85.23;24.57;;;3.90;99.90;;;;;;4878600;29;20203;-85
2021/04/17 06:05:42;;;;;;;79.40;23.57;;;4.00;99.90;;;;;;4870701;29;20205;-85
2021/04/17 06:08:07;;;;;;;84.43;24.50;;;3.90;99.90;;;;;;4898807;29;20305;-82
2021/04/17 06:10:33;;;;;;;83.53;25.20;;;4.00;99.90;;;;;;4874905;29;20201;-84
2021/04/17 06:12:59;;;;;;;91.60;28.10;;;4.10;99.90;;;;;;4857628;29;20525;-85
2021/04/17 06:15:26;;;;;;;93.70;29.13;;;4.10;99.90;;;;;;4874134;29;20556;-84
2021/04/17 06:17:51;;;;;;;94.70;26.10;;;4.10;99.90;;;;;;4839858;29;20239;-84
2021/04/17 06:20:18;;;;;;;91.77;26.50;;;4.10;99.90;;;;;;4888012;29;20207;-84
2021/04/17 06:22:43;;;;;;;70.57;23.07;;;4.00;99.90;;;;;;4883830;29;20676;-83
2021/04/17 06:25:10;;;;;;;83.47;25.67;;;4.40;99.90;;;;;;4866178;29;20218;-84
2021/04/17 06:27:36;;;;;;;72.87;24.37;;;4.00;99.90;;;;;;4890921;29;20262;-85
2021/04/17 06:30:03;;;;;;;86.03;26.27;;;3.90;99.90;;;;;;4910515;29;20268;-86
2021/04/17 06:32:28;;;;;;;88.07;25.43;;;5.50;99.90;;;;;;4880644;29;20721;-85
2021/04/17 06:34:54;;;;;;;82.43;24.63;;;4.00;99.90;;;;;;4879627;29;20282;-84
2021/04/17 06:37:20;;;;;;;94.60;27.07;;;4.00;99.90;;;;;;4881257;29;20692;-84
2021/04/17 06:39:45;;;;;;;90.00;27.27;;;4.00;99.90;;;;;;4893472;29;20227;-84
2021/04/17 06:42:15;;;;;;;76.37;25.07;;;4.00;99.90;;;;;;4893019;29;20186;-85
2021/04/17 06:44:42;;;;;;;87.00;26.33;;;4.10;99.90;;;;;;4878625;29;20656;-86
2021/04/17 06:47:15;;;;;;;78.00;23.53;;;4.00;99.90;;;;;;4879187;29;20201;-87
2021/04/17 06:49:42;;;;;;;82.60;24.87;;;4.10;99.90;;;;;;4875157;29;20285;-85
2021/04/17 06:52:11;;;;;;;82.60;25.23;;;4.10;99.90;;;;;;4861706;29;20210;-88
2021/04/17 06:54:37;;;;;;;74.13;22.97;;;4.10;99.90;;;;;;4868525;29;20190;-88
2021/04/17 06:57:04;;;;;;;85.90;26.30;;;4.10;99.90;;;;;;4874241;29;20261;-87
2021/04/17 06:59:31;;;;;;;86.43;27.33;;;4.10;99.90;;;;;;4873929;29;20229;-86
2021/04/17 07:01:57;;;;;;;82.63;25.47;;;4.20;99.90;;;;;;4889827;29;20631;-87
2021/04/17 07:04:24;;;;;;;76.50;25.93;;;4.20;99.90;;;;;;4872973;29;20730;-87
2021/04/17 07:06:50;;;;;;;68.30;24.87;;;4.20;99.90;;;;;;4877038;29;20314;-87
2021/04/17 07:09:16;;;;;;;67.63;23.93;;;4.10;99.90;;;;;;4889259;29;20609;-86
2021/04/17 07:11:42;;;;;;;78.87;25.50;;;4.10;99.90;;;;;;4883836;29;20196;-84
2021/04/17 07:14:13;;;;;;;78.20;24.10;;;4.10;99.90;;;;;;4882537;29;20230;-87
2021/04/17 07:17:04;;;;;;;92.47;25.20;;;4.20;99.90;;;;;;4890632;29;20216;-86
2021/04/17 07:19:52;;;;;;;92.07;26.50;;;4.20;99.90;;;;;;4878689;29;20201;-88
2021/04/17 07:22:31;;;;;;;79.77;25.47;;;4.20;99.90;;;;;;4877436;29;20570;-88
2021/04/17 07:25:05;;;;;;;81.23;26.27;;;4.30;99.90;;;;;;4883340;29;20188;-87
2021/04/17 07:27:49;;;;;;;80.00;27.10;;;4.40;99.90;;;;;;4885424;29;20631;-87
2021/04/17 07:30:14;;;;;;;85.47;27.43;;;4.40;99.90;;;;;;4873170;29;20244;-87
2021/04/17 07:32:40;;;;;;;82.57;24.97;;;4.50;99.90;;;;;;4875041;29;20694;-86
2021/04/17 07:35:08;;;;;;;82.47;25.80;;;4.50;99.90;;;;;;4877170;29;20279;-86
2021/04/17 07:37:36;;;;;;;75.30;26.17;;;4.50;99.90;;;;;;4885474;29;20229;-87
2021/04/17 07:40:34;;;;;;;75.23;24.50;;;4.50;99.90;;;;;;4868824;29;20193;-88
2021/04/17 07:43:00;;;;;;;63.73;24.87;;;4.60;99.90;;;;;;4853899;29;20273;-88
2021/04/17 07:45:28;;;;;;;69.13;24.77;;;4.60;99.90;;;;;;4870076;29;20201;-87
2021/04/17 07:47:58;;;;;;;67.27;24.07;;;4.70;99.90;;;;;;4877744;29;20193;-88
2021/04/17 07:50:33;;;;;;;70.80;24.63;;;4.80;99.90;;;;;;4877959;29;20182;-85
2021/04/17 07:52:59;;;;;;;60.13;23.10;;;4.80;99.90;;;;;;4877852;29;20196;-87
2021/04/17 07:55:31;;;;;;;72.97;25.37;;;4.80;99.90;;;;;;4877637;29;20193;-88
2021/04/17 07:57:57;;;;;;;66.97;25.20;;;4.80;99.90;;;;;;4877322;29;20215;-87
2021/04/17 08:00:26;;;;;;;73.80;26.50;;;4.70;99.90;;;;;;4877107;29;20249;-89
2021/04/17 08:02:53;;;;;;;72.20;27.47;;;4.80;99.90;;;;;;4871023;29;20267;-88
2021/04/17 08:05:22;;;;;;;63.70;25.70;;;4.80;99.90;;;;;;4872900;29;20207;-88
2021/04/17 08:07:48;;;;;;;49.23;16.53;;;4.80;99.90;;;;;;4869658;29;20242;-89
2021/04/17 08:10:15;;;;;;;62.90;22.90;;;4.80;99.90;;;;;;4873289;29;20196;-88
2021/04/17 08:12:42;;;;;;;67.73;25.87;;;4.80;99.90;;;;;;4880524;29;20189;-89
2021/04/17 08:15:19;;;;;;;62.67;24.17;;;4.90;99.90;;;;;;4879830;29;20563;-88
2021/04/17 08:17:46;;;;;;;61.33;25.00;;;5.00;99.90;;;;;;4893066;29;20224;-90
2021/04/17 08:20:15;;;;;;;60.73;23.90;;;5.20;99.90;;;;;;4881835;29;20199;-90
2021/04/17 08:22:43;;;;;;;60.67;25.30;;;5.20;99.90;;;;;;4871338;29;20198;-89
2021/04/17 08:25:10;;;;;;;65.27;23.93;;;5.20;99.90;;;;;;4879954;29;20220;-87
2021/04/17 08:27:36;;;;;;;59.30;23.60;;;5.30;99.90;;;;;;4877860;29;20205;-89
2021/04/17 08:30:09;;;;;;;53.00;22.37;;;5.40;99.90;;;;;;4873030;29;20256;-89
2021/04/17 08:32:37;;;;;;;51.63;23.13;;;5.40;99.90;;;;;;4882532;29;20193;-89
2021/04/17 08:35:10;;;;;;;60.47;24.63;;;5.40;99.90;;;;;;4878077;29;20213;-90
2021/04/17 08:37:55;;;;;;;56.10;24.80;;;5.50;99.90;;;;;;4879815;29;20217;-89
2021/04/17 08:40:39;;;;;;;45.90;20.90;;;5.70;99.90;;;;;;4880337;29;20185;-90
2021/04/17 08:43:12;;;;;;;49.60;22.73;;;5.70;99.90;;;;;;4880205;29;20272;-89
2021/04/17 08:46:07;;;;;;;55.57;21.37;;;5.80;99.90;;;;;;4882757;29;20237;-89
2021/04/17 08:48:50;;;;;;;52.53;22.30;;;5.70;99.90;;;;;;4870707;29;20204;-88
2021/04/17 08:51:21;;;;;;;56.83;24.10;;;5.70;99.90;;;;;;4874493;29;20266;-89
2021/04/17 08:53:48;;;;;;;49.10;21.80;;;5.70;99.90;;;;;;4878152;29;20381;-87
2021/04/17 08:56:14;;;;;;;56.20;22.23;;;5.60;99.90;;;;;;4869563;29;20334;-90
2021/04/17 08:58:40;;;;;;;43.53;17.93;;;5.70;99.90;;;;;;4877298;29;20312;-88
2021/04/17 09:01:09;;;;;;;49.93;22.60;;;5.70;99.90;;;;;;4893689;29;20206;-89
2021/04/17 09:03:47;;;;;;;48.93;21.83;;;5.80;99.90;;;;;;4884308;29;20280;-88
2021/04/17 09:06:25;;;;;;;50.20;21.00;;;5.80;99.90;;;;;;4892909;29;20185;-89
2021/04/17 09:09:16;;;;;;;47.90;21.93;;;5.80;99.90;;;;;;4890880;29;20197;-90
2021/04/17 09:11:45;;;;;;;47.90;22.03;;;5.80;99.90;;;;;;4879787;29;20212;-87
2021/04/17 09:14:26;;;;;;;44.93;20.90;;;5.90;99.90;;;;;;4884078;29;20651;-88
2021/04/17 09:17:02;;;;;;;49.37;21.07;;;5.90;99.90;;;;;;4882916;29;20249;-88
2021/04/17 09:19:40;;;;;;;48.57;22.53;;;5.90;99.90;;;;;;4879241;29;20683;-89
2021/04/17 09:22:29;;;;;;;42.13;19.77;;;6.00;99.90;;;;;;4891845;29;20197;-89
2021/04/17 09:25:01;;;;;;;47.53;19.70;;;6.00;99.90;;;;;;4890552;29;20205;-92
2021/04/17 09:27:30;;;;;;;48.40;22.30;;;6.00;99.90;;;;;;4877208;29;20189;-88
2021/04/17 09:30:00;;;;;;;46.30;21.20;;;6.10;99.90;;;;;;4877954;29;20238;-89
2021/04/17 09:32:43;;;;;;;41.97;20.40;;;6.30;99.90;;;;;;4873305;29;20249;-89
2021/04/17 09:35:20;;;;;;;35.47;16.60;;;6.20;99.90;;;;;;4877248;29;20557;-87
2021/04/17 09:37:58;;;;;;;46.77;19.93;;;6.20;99.90;;;;;;4892227;29;20245;-89
2021/04/17 09:40:31;;;;;;;46.33;20.33;;;6.30;99.90;;;;;;4878896;29;20208;-86
2021/04/17 09:42:57;;;;;;;32.37;14.70;;;6.50;99.90;;;;;;4876900;29;20249;-87
2021/04/17 09:45:35;;;;;;;43.00;19.73;;;6.50;99.90;;;;;;4861299;29;20190;-88
2021/04/17 09:48:04;;;;;;;41.37;19.40;;;6.50;99.90;;;;;;4867917;29;20244;-87
2021/04/17 09:50:32;;;;;;;40.40;19.63;;;6.50;99.90;;;;;;4893105;29;20194;-88
2021/04/17 09:53:14;;;;;;;41.93;20.13;;;6.50;99.90;;;;;;4880366;29;20655;-88
2021/04/17 09:55:48;;;;;;;38.13;19.50;;;6.70;99.90;;;;;;4890041;29;20186;-88
2021/04/17 09:58:40;;;;;;;29.77;15.23;;;6.80;99.90;;;;;;4878479;29;20213;-94
2021/04/17 10:01:17;;;;;;;38.53;19.20;;;6.80;99.90;;;;;;4878428;29;20238;-89
2021/04/17 10:03:51;;;;;;;33.30;18.10;;;6.80;99.90;;;;;;4875062;29;20226;-88
2021/04/17 10:06:25;;;;;;;37.07;18.07;;;6.70;99.90;;;;;;4875440;29;20201;-91
2021/04/17 10:08:51;;;;;;;36.90;18.53;;;6.70;99.90;;;;;;4875698;29;20242;-89
2021/04/17 10:11:25;;;;;;;38.13;18.23;;;6.70;99.90;;;;;;4876342;29;20190;-88
2021/04/17 10:13:52;;;;;;;41.80;20.63;;;6.80;99.90;;;;;;4876067;29;20690;-90
2021/04/17 10:16:39;;;;;;;40.27;21.20;;;6.90;99.90;;;;;;4890758;29;20589;-89
2021/04/17 10:19:14;;;;;;;40.10;20.23;;;6.80;99.90;;;;;;4877053;29;20253;-88
2021/04/17 10:21:40;;;;;;;39.57;20.70;;;6.80;99.90;;;;;;4876495;29;20217;-89
2021/04/17 10:24:24;;;;;;;42.00;20.83;;;6.70;99.90;;;;;;4877540;29;20186;-85
2021/04/17 10:27:06;;;;;;;35.67;18.77;;;6.60;99.90;;;;;;4888296;29;20194;-88
2021/04/17 10:29:52;;;;;;;37.97;20.33;;;6.60;99.90;;;;;;4890522;29;20238;-90
2021/04/17 10:32:24;;;;;;;38.13;21.07;;;6.60;99.90;;;;;;4877517;29;20192;-89
2021/04/17 10:35:07;;;;;;;38.10;21.47;;;6.50;99.90;;;;;;4874228;29;20194;-87
2021/04/17 10:37:46;;;;;;;40.67;21.87;;;6.50;99.90;;;;;;4875035;29;20225;-89
2021/04/17 10:40:21;;;;;;;38.30;21.80;;;6.60;99.90;;;;;;4876636;29;20651;-90
2021/04/17 10:42:55;;;;;;;39.53;20.20;;;6.70;99.90;;;;;;4870656;29;20236;-86
2021/04/17 10:45:30;;;;;;;43.27;22.70;;;6.70;99.90;;;;;;4876868;29;20233;-88
2021/04/17 10:48:07;;;;;;;40.33;21.93;;;6.70;99.90;;;;;;4876516;29;20197;-89
2021/04/17 10:50:38;;;;;;;39.17;22.17;;;6.80;99.90;;;;;;4890055;29;20189;-91
2021/04/17 10:53:11;;;;;;;41.37;23.27;;;6.80;99.90;;;;;;4866630;29;20186;-90
2021/04/17 10:55:46;;;;;;;38.63;22.03;;;6.90;99.90;;;;;;4877774;29;20189;-86
2021/04/17 10:58:33;;;;;;;41.00;22.80;;;6.90;99.90;;;;;;4868674;29;20237;-92
2021/04/17 11:01:13;;;;;;;46.80;26.20;;;6.80;99.90;;;;;;4891439;29;20189;-88
2021/04/17 11:03:49;;;;;;;47.53;24.50;;;6.80;99.90;;;;;;4891649;29;20185;-87
2021/04/17 11:06:21;;;;;;;43.13;23.93;;;6.80;99.90;;;;;;4876738;29;20225;-87
2021/04/17 11:08:50;;;;;;;51.03;26.40;;;6.80;99.90;;;;;;4877558;29;20189;-87
2021/04/17 11:11:21;;;;;;;45.87;25.00;;;6.80;99.90;;;;;;4876873;29;20857;-86
2021/04/17 11:13:55;;;;;;;44.83;22.77;;;6.80;99.90;;;;;;4875251;29;20185;-86
2021/04/17 11:16:45;;;;;;;47.00;24.60;;;6.70;99.90;;;;;;4876973;29;20261;-86
2021/04/17 11:19:29;;;;;;;45.37;23.50;;;6.70;99.90;;;;;;4873278;29;20709;-85
2021/04/17 11:22:12;;;;;;;47.13;24.23;;;6.60;99.90;;;;;;4876150;29;20216;-86
2021/04/17 11:24:58;;;;;;;44.47;23.53;;;6.60;99.90;;;;;;4876782;29;20218;-85
2021/04/17 11:27:25;;;;;;;45.63;24.90;;;6.70;99.90;;;;;;4866803;29;20280;-88
2021/04/17 11:29:51;;;;;;;48.47;25.67;;;6.70;99.90;;;;;;4871780;29;20329;-87
2021/04/17 11:32:17;;;;;;;46.67;25.53;;;6.70;99.90;;;;;;4875902;29;20682;-88
2021/04/17 11:34:43;;;;;;;45.90;24.57;;;6.70;99.90;;;;;;4885312;29;20684;-88
2021/04/17 11:37:09;;;;;;;48.53;25.97;;;6.80;99.90;;;;;;4895538;29;20226;-87
2021/04/17 11:39:35;;;;;;;44.20;24.77;;;6.80;99.90;;;;;;4898268;29;20177;-87
2021/04/17 11:42:01;;;;;;;46.70;25.27;;;6.90;99.90;;;;;;4907891;29;20594;-86
2021/04/17 11:44:26;;;;;;;44.13;21.43;;;7.00;99.90;;;;;;4869752;29;20679;-88
2021/04/17 11:46:52;;;;;;;47.40;24.27;;;7.00;99.90;;;;;;4881017;29;20654;-87
2021/04/17 11:49:18;;;;;;;36.73;21.43;;;7.20;99.90;;;;;;4863966;29;20202;-88
2021/04/17 11:51:44;;;;;;;38.87;21.93;;;7.20;99.90;;;;;;4892332;29;20213;-86
2021/04/17 11:54:09;;;;;;;42.23;23.73;;;7.30;99.90;;;;;;4863174;29;20202;-87
2021/04/17 11:56:36;;;;;;;37.67;20.83;;;7.40;99.90;;;;;;4880084;29;20222;-87
2021/04/17 11:59:02;;;;;;;34.83;20.27;;;7.50;99.90;;;;;;4871294;29;20227;-88
2021/04/17 12:01:27;;;;;;;40.43;20.43;;;7.40;99.90;;;;;;4895047;29;20539;-88
2021/04/17 12:03:53;;;;;;;34.30;20.00;;;7.40;99.90;;;;;;4881163;29;20186;-87
2021/04/17 12:06:19;;;;;;;40.30;22.17;;;7.40;99.90;;;;;;4894968;29;20971;-87
2021/04/17 12:08:45;;;;;;;37.60;19.43;;;7.40;99.90;;;;;;4880243;29;20198;-86
2021/04/17 12:11:10;;;;;;;34.67;19.10;;;7.40;99.90;;;;;;4879588;29;20197;-86
2021/04/17 12:13:36;;;;;;;32.83;18.97;;;7.40;99.90;;;;;;4879632;29;20197;-87
2021/04/17 12:16:03;;;;;;;31.97;18.47;;;7.30;99.90;;;;;;4880398;29;20561;-87
2021/04/17 12:18:30;;;;;;;35.47;19.47;;;7.30;99.90;;;;;;4880805;29;20222;-87
2021/04/17 12:20:55;;;;;;;34.07;19.30;;;7.30;99.90;;;;;;4879462;29;20189;-85
2021/04/17 12:23:21;;;;;;;41.53;21.30;;;7.30;99.90;;;;;;4879355;29;20194;-87
2021/04/17 12:25:47;;;;;;;36.20;21.07;;;7.20;99.90;;;;;;4894771;29;20194;-87
2021/04/17 12:28:13;;;;;;;30.53;16.70;;;7.10;99.90;;;;;;4880843;29;20186;-86
2021/04/17 12:30:39;;;;;;;35.80;20.37;;;7.10;99.90;;;;;;4881590;29;20251;-85
2021/04/17 12:33:06;;;;;;;45.77;22.57;;;7.10;99.90;;;;;;4880682;29;20201;-87
2021/04/17 12:35:32;;;;;;;41.43;21.63;;;7.00;99.90;;;;;;4880891;29;20202;-87
2021/04/17 12:37:58;;;;;;;34.03;18.83;;;7.10;99.90;;;;;;4894880;29;20221;-89
2021/04/17 12:40:23;;;;;;;34.17;21.77;;;7.10;99.90;;;;;;4894698;29;20260;-85
2021/04/17 12:42:49;;;;;;;37.67;20.23;;;7.10;99.90;;;;;;4880492;29;20731;-86
2021/04/17 12:45:15;;;;;;;39.43;20.20;;;7.10;99.90;;;;;;4894632;29;20233;-87